Time;durP1;ratioP1;P1;durP2;ratioP2;P2;SDS_P1;SDS_P2;PMS_P1;PMS_P2;Temp;Humidity;BMP_temperature;BMP_pressure;BME280_temperature;BME280_humidity;BME280_pressure;Samples;Min_cycle;Max_cycle;Signal;HPM_P1;HPM_P2
2022/08/08 00:01:11;;;;;;;17.30;14.60;;;;;;;21.61;69.86;100190.22;5030912;28;20068;-55
2022/08/08 00:03:57;;;;;;;16.42;13.88;;;;;;;21.59;69.83;100200.47;5031420;28;20044;-58
2022/08/08 00:06:22;;;;;;;;;;;;;;;21.85;68.33;100194.56;5033034;28;20391;-58
2022/08/08 00:08:57;;;;;;;;;;;;;;;21.94;66.79;100193.44;5031823;28;20066;-59
2022/08/08 00:11:42;;;;;;;12.45;11.15;;;;;;;21.73;69.00;100198.81;5032015;28;19944;-58
2022/08/08 00:14:12;;;;;;;12.52;11.32;;;;;;;21.52;68.96;100189.47;5031557;28;20044;-56
2022/08/08 00:16:43;;;;;;;15.52;11.25;;;;;;;21.54;69.12;100189.25;5031482;28;20049;-60
2022/08/08 00:19:23;;;;;;;11.85;10.60;;;;;;;21.55;69.75;100188.22;5032238;28;20048;-59
2022/08/08 00:21:59;;;;;;;12.68;10.48;;;;;;;21.52;69.70;100186.75;5031431;28;20551;-58
2022/08/08 00:24:43;;;;;;;13.32;10.75;;;;;;;21.48;69.40;100186.25;5032678;28;20053;-57
2022/08/08 00:27:12;;;;;;;12.63;10.57;;;;;;;21.45;69.62;100185.78;5031201;28;20056;-58
2022/08/08 00:29:53;;;;;;;11.93;10.73;;;;;;;21.50;69.71;100191.53;5031173;28;20028;-59
2022/08/08 00:32:51;;;;;;;15.73;11.43;;;;;;;21.46;69.91;100185.59;5032346;28;20401;-60
2022/08/08 00:35:38;;;;;;;12.90;11.50;;;;;;;21.44;70.15;100186.81;5026312;28;20052;-58
2022/08/08 00:38:06;;;;;;;14.02;12.25;;;;;;;21.23;70.08;100183.78;5031749;28;20120;-58
2022/08/08 00:40:41;;;;;;;14.63;12.65;;;;;;;21.26;70.91;100179.84;5031148;28;20044;-59
2022/08/08 00:43:51;;;;;;;16.75;14.98;;;;;;;21.26;71.10;100190.75;5032229;28;20065;-57
2022/08/08 00:47:07;;;;;;;17.80;15.20;;;;;;;21.26;71.47;100189.88;5028886;28;20055;-58
2022/08/08 00:50:01;;;;;;;19.23;16.97;;;;;;;21.20;71.01;100192.31;5032863;28;20036;-58
2022/08/08 00:52:52;;;;;;;20.80;17.67;;;;;;;21.26;71.06;100190.75;5031151;28;20040;-56
2022/08/08 00:55:29;;;;;;;24.13;17.90;;;;;;;21.14;71.08;100190.34;5032091;28;20036;-57
2022/08/08 00:58:09;;;;;;;24.55;19.92;;;;;;;21.03;71.44;100191.63;5030703;28;20033;-59
2022/08/08 01:00:59;;;;;;;23.00;18.85;;;;;;;21.01;71.83;100204.59;5030904;28;20033;-57
2022/08/08 01:03:37;;;;;;;23.05;18.23;;;;;;;20.99;71.87;100198.47;5031768;28;20125;-57
2022/08/08 01:06:50;;;;;;;21.42;19.13;;;;;;;21.03;72.28;100207.97;5031022;28;20041;-56
2022/08/08 01:09:55;;;;;;;20.98;17.40;;;;;;;21.03;71.90;100213.41;5031172;28;20033;-56
2022/08/08 01:12:48;;;;;;;23.90;18.20;;;;;;;20.99;71.80;100209.38;5032715;28;20045;-58
2022/08/08 01:15:41;;;;;;;20.02;17.35;;;;;;;21.02;71.79;100209.00;5035977;28;20104;-58
2022/08/08 01:18:46;;;;;;;20.60;17.67;;;;;;;21.03;71.89;100209.81;5034563;28;20456;-55
2022/08/08 01:21:30;;;;;;;18.73;16.73;;;;;;;20.92;71.50;100194.78;5034283;28;20034;-60
2022/08/08 01:24:33;;;;;;;20.17;17.48;;;;;;;21.04;71.72;100204.22;5034556;28;20170;-58
2022/08/08 01:27:21;;;;;;;21.23;18.48;;;;;;;21.03;71.63;100205.25;5034413;28;20478;-56
2022/08/08 01:30:08;;;;;;;19.73;17.63;;;;;;;20.93;71.36;100208.22;5048139;28;20040;-59
2022/08/08 01:32:52;;;;;;;20.15;18.02;;;;;;;20.89;71.26;100196.00;5054391;28;20354;-58
2022/08/08 01:35:42;;;;;;;20.08;17.95;;;;;;;21.02;71.34;100199.97;5053057;28;20118;-54
2022/08/08 01:38:26;;;;;;;25.42;19.05;;;;;;;21.06;71.28;100196.72;5034486;28;20450;-57
2022/08/08 01:41:30;;;;;;;22.52;20.08;;;;;;;21.10;71.03;100202.66;5034126;28;20072;-59
2022/08/08 01:43:58;;;;;;;20.95;18.70;;;;;;;20.95;71.13;100197.13;5045295;28;20036;-57
2022/08/08 01:46:26;;;;;;;23.75;19.23;;;;;;;20.88;71.08;100204.34;5037123;28;20041;-58
2022/08/08 01:49:06;;;;;;;23.17;19.17;;;;;;;20.88;71.73;100204.34;5039663;28;20389;-60
2022/08/08 01:51:50;;;;;;;19.48;17.42;;;;;;;20.89;72.07;100206.03;5053685;28;20493;-58
2022/08/08 01:54:43;;;;;;;20.80;16.65;;;;;;;20.81;72.02;100208.81;5052937;28;20029;-59
2022/08/08 01:57:16;;;;;;;19.15;15.80;;;;;;;20.68;71.71;100201.25;5033780;28;20060;-57
2022/08/08 02:00:00;;;;;;;18.83;15.50;;;;;;;20.59;71.43;100201.28;5033958;28;20466;-58
2022/08/08 02:02:44;;;;;;;15.90;14.20;;;;;;;20.75;71.93;100205.78;5033947;28;20120;-58
2022/08/08 02:05:32;;;;;;;18.48;14.88;;;;;;;20.62;71.64;100205.53;5035424;28;20036;-58
2022/08/08 02:08:15;;;;;;;16.33;13.57;;;;;;;20.64;71.48;100209.78;5033590;28;20056;-58
2022/08/08 02:10:52;;;;;;;14.32;12.82;;;;;;;20.56;71.14;100208.97;5052444;28;20220;-60
2022/08/08 02:14:00;;;;;;;16.92;12.20;;;;;;;20.56;71.55;100204.38;5053806;28;20102;-59
2022/08/08 02:16:48;;;;;;;13.70;11.18;;;;;;;20.56;71.77;100212.53;5051572;28;20120;-58
2022/08/08 02:19:26;;;;;;;13.55;11.35;;;;;;;20.54;71.77;100213.75;5053384;28;20091;-59
2022/08/08 02:25:21;;;;;;;10.50;9.45;;;;;;;20.51;71.67;100214.94;5053315;28;20461;-55
2022/08/08 02:28:16;;;;;;;13.40;9.40;;;;;;;20.45;71.55;100210.22;5051935;28;20048;-58
2022/08/08 02:31:05;;;;;;;12.07;9.23;;;;;;;20.36;71.88;100212.16;5053087;28;20041;-60
2022/08/08 02:34:08;;;;;;;11.10;8.88;;;;;;;20.33;72.04;100220.66;5053006;28;20112;-57
2022/08/08 02:37:15;;;;;;;8.98;7.85;;;;;;;20.30;71.85;100223.75;5049974;28;20029;-59
2022/08/08 02:40:05;;;;;;;8.95;8.05;;;;;;;20.26;71.65;100225.13;5053598;28;20123;-56
2022/08/08 02:42:46;;;;;;;9.30;7.68;;;;;;;20.18;71.77;100232.28;5033009;28;20477;-58
2022/08/08 02:45:36;;;;;;;8.63;7.28;;;;;;;20.17;71.43;100224.31;5032907;28;20037;-56
2022/08/08 02:48:21;;;;;;;10.32;6.68;;;;;;;20.14;71.56;100224.69;5048094;28;20040;-59
2022/08/08 02:51:15;;;;;;;8.63;6.70;;;;;;;20.09;71.45;100241.50;5052767;28;20261;-59
2022/08/08 02:54:02;;;;;;;8.63;6.43;;;;;;;20.08;71.15;100247.97;5050836;28;20558;-58
2022/08/08 02:56:59;;;;;;;8.70;6.63;;;;;;;20.02;71.06;100249.50;5052922;28;20032;-58
2022/08/08 02:59:55;;;;;;;6.65;5.80;;;;;;;19.99;71.16;100262.59;5049754;28;20094;-57
2022/08/08 03:02:42;;;;;;;8.00;5.72;;;;;;;19.94;70.85;100252.25;5052699;28;20127;-55
2022/08/08 03:05:17;;;;;;;6.90;5.35;;;;;;;19.93;70.96;100256.84;5052042;28;20132;-58
2022/08/08 03:08:09;;;;;;;9.32;5.88;;;;;;;20.00;70.95;100262.44;5033144;28;20029;-58
2022/08/08 03:10:57;;;;;;;5.47;4.65;;;;;;;19.99;70.50;100257.16;5031282;28;20156;-57
2022/08/08 03:13:41;;;;;;;4.60;4.05;;;;;;;20.06;70.61;100269.03;5042434;28;20033;-57
2022/08/08 03:16:29;;;;;;;7.15;4.50;;;;;;;20.00;70.68;100278.75;5052178;28;20032;-58
2022/08/08 03:18:57;;;;;;;6.88;4.47;;;;;;;19.87;70.12;100265.66;5045411;28;20116;-60
2022/08/08 03:21:22;;;;;;;7.10;5.00;;;;;;;19.80;70.16;100272.81;5032681;28;20038;-57
2022/08/08 03:23:48;;;;;;;8.82;4.88;;;;;;;19.72;69.87;100273.69;5032334;28;20032;-56
2022/08/08 03:26:18;;;;;;;6.85;4.60;;;;;;;19.73;70.13;100279.94;5039318;28;20033;-58
2022/08/08 03:28:50;;;;;;;5.45;4.53;;;;;;;19.72;70.06;100276.41;5051746;28;20109;-56
2022/08/08 03:34:08;;;;;;;5.35;3.97;;;;;;;19.54;70.09;100282.03;5031254;28;20037;-57
2022/08/08 03:36:40;;;;;;;5.75;4.47;;;;;;;19.57;70.32;100276.25;5031659;28;20041;-57
2022/08/08 03:39:06;;;;;;;7.00;4.53;;;;;;;19.52;69.99;100286.75;5039160;28;20025;-57
2022/08/08 03:41:33;;;;;;;8.88;4.78;;;;;;;19.40;69.77;100264.53;5052098;28;20090;-57
2022/08/08 03:43:59;;;;;;;4.97;4.47;;;;;;;19.58;69.42;100283.38;5051648;28;20029;-58
2022/08/08 03:46:24;;;;;;;6.95;4.53;;;;;;;19.59;68.65;100292.38;5049479;28;20029;-57
2022/08/08 03:49:20;;;;;;;6.25;4.60;;;;;;;19.75;69.33;100286.91;5051851;28;20025;-58
2022/08/08 03:51:50;;;;;;;4.77;3.97;;;;;;;19.60;68.64;100294.06;5049602;28;20040;-58
2022/08/08 03:54:15;;;;;;;9.25;3.90;;;;;;;19.52;68.97;100297.63;5051346;28;20242;-58
2022/08/08 03:56:42;;;;;;;7.68;4.00;;;;;;;19.46;68.94;100298.31;5051827;28;20078;-58
2022/08/08 03:59:08;;;;;;;7.55;4.72;;;;;;;19.36;68.49;100284.91;5049600;28;20033;-55
2022/08/08 04:01:35;;;;;;;5.63;5.00;;;;;;;19.53;68.62;100302.03;5050822;28;20035;-57
2022/08/08 04:04:01;;;;;;;7.30;4.40;;;;;;;19.68;67.66;100301.34;5049691;28;20103;-57
2022/08/08 04:06:27;;;;;;;4.70;4.20;;;;;;;19.81;67.29;100307.13;5051739;28;20107;-60
2022/08/08 04:08:53;;;;;;;6.22;4.30;;;;;;;19.75;66.84;100291.50;5044913;28;20033;-58
2022/08/08 04:11:18;;;;;;;6.03;4.60;;;;;;;19.96;66.83;100303.72;5031175;28;20076;-56
2022/08/08 04:13:45;;;;;;;6.55;5.47;;;;;;;19.99;66.61;100314.22;5036029;28;20045;-58
2022/08/08 04:16:11;;;;;;;6.18;5.03;;;;;;;19.91;65.84;100275.19;5048764;28;20037;-59
2022/08/08 04:18:36;;;;;;;5.30;4.80;;;;;;;20.15;65.71;100313.34;5050973;28;20047;-59
2022/08/08 04:21:02;;;;;;;5.85;4.88;;;;;;;20.10;65.29;100280.38;5043331;28;20033;-57
2022/08/08 04:23:27;;;;;;;6.05;5.00;;;;;;;20.35;64.77;100303.75;5031354;28;20128;-56
2022/08/08 04:25:53;;;;;;;7.00;6.15;;;;;;;20.31;64.59;100318.72;5030664;28;20068;-57
2022/08/08 04:28:18;;;;;;;8.85;5.93;;;;;;;20.32;64.79;100316.84;5048248;28;20033;-59
2022/08/08 04:30:44;;;;;;;7.68;6.95;;;;;;;20.30;64.60;100316.19;5050436;28;20461;-59
2022/08/08 04:33:09;;;;;;;8.70;7.80;;;;;;;20.20;64.52;100317.22;5043310;28;20452;-58
2022/08/08 04:35:35;;;;;;;9.55;8.65;;;;;;;20.09;64.78;100323.06;5031257;28;20401;-59
2022/08/08 04:38:00;;;;;;;9.88;8.88;;;;;;;20.00;65.04;100310.47;5030852;28;20029;-59
2022/08/08 04:40:26;;;;;;;9.35;7.97;;;;;;;19.96;64.93;100328.16;5039614;28;20029;-59
2022/08/08 04:42:51;;;;;;;8.60;7.55;;;;;;;19.92;64.79;100328.50;5031194;28;20369;-55
2022/08/08 04:45:17;;;;;;;8.15;7.55;;;;;;;19.90;64.91;100322.38;5034318;28;20542;-57
2022/08/08 04:47:42;;;;;;;8.63;7.93;;;;;;;20.00;64.38;100326.78;5049985;28;20085;-58
2022/08/08 04:50:08;;;;;;;8.90;7.93;;;;;;;20.05;63.89;100332.56;5050452;28;20059;-58
2022/08/08 04:52:34;;;;;;;9.15;8.20;;;;;;;20.08;63.98;100330.34;5048829;28;20067;-57
2022/08/08 04:54:59;;;;;;;10.18;9.27;;;;;;;20.17;63.81;100336.59;5051432;28;20112;-58
2022/08/08 04:57:25;;;;;;;10.80;8.73;;;;;;;20.27;63.61;100338.28;5048198;28;20074;-58
2022/08/08 04:59:50;;;;;;;8.32;7.63;;;;;;;20.30;63.01;100341.50;5030464;28;20397;-55
2022/08/08 05:02:16;;;;;;;8.93;8.02;;;;;;;20.29;62.98;100337.06;5030662;28;20057;-58
2022/08/08 05:04:42;;;;;;;8.55;7.75;;;;;;;20.28;63.09;100334.56;5040704;28;20120;-55
2022/08/08 05:07:08;;;;;;;9.55;7.80;;;;;;;20.43;62.84;100337.38;5050491;28;20503;-54
2022/08/08 05:09:33;;;;;;;9.02;7.75;;;;;;;20.57;62.01;100341.22;5048608;28;20501;-55
2022/08/08 05:12:00;;;;;;;7.15;6.65;;;;;;;20.65;61.75;100330.31;5048583;28;20099;-58
2022/08/08 05:14:26;;;;;;;7.10;6.50;;;;;;;20.90;61.19;100344.66;5050023;28;20062;-57
2022/08/08 05:16:51;;;;;;;6.85;6.25;;;;;;;21.12;60.26;100330.41;5047399;28;20479;-56
2022/08/08 05:19:17;;;;;;;8.98;6.40;;;;;;;21.55;59.29;100340.78;5030274;28;20044;-60
2022/08/08 05:21:43;;;;;;;7.68;6.88;;;;;;;22.09;57.53;100339.78;5030361;28;20045;-60
2022/08/08 05:24:10;;;;;;;5.90;5.30;;;;;;;23.34;54.29;100339.03;5046199;28;20029;-56
2022/08/08 05:26:37;;;;;;;5.80;4.75;;;;;;;24.62;50.70;100342.69;5050185;28;20536;-57
2022/08/08 05:29:07;;;;;;;5.65;5.07;;;;;;;25.66;48.31;100337.00;5050125;28;20032;-60
2022/08/08 05:31:35;;;;;;;5.32;4.30;;;;;;;27.05;44.59;100333.28;5030431;28;20052;-60
2022/08/08 05:34:05;;;;;;;5.35;4.85;;;;;;;28.19;41.44;100311.41;5030662;28;20064;-59
2022/08/08 05:36:34;;;;;;;4.50;3.95;;;;;;;29.35;39.39;100320.66;5031453;28;20044;-60
2022/08/08 05:39:03;;;;;;;5.25;4.13;;;;;;;30.16;37.99;100317.38;5030628;28;20033;-60
2022/08/08 05:41:33;;;;;;;4.82;4.13;;;;;;;31.26;34.74;100307.38;5030229;28;20029;-59
2022/08/08 05:44:09;;;;;;;4.45;3.65;;;;;;;32.46;33.45;100326.66;5031673;28;20045;-59
2022/08/08 05:46:36;;;;;;;4.65;3.10;;;;;;;32.61;32.25;100306.59;5030016;28;20033;-59
2022/08/08 05:49:02;;;;;;;6.53;3.35;;;;;;;32.76;32.03;100326.13;5033005;28;20029;-58
2022/08/08 05:51:29;;;;;;;3.63;3.20;;;;;;;32.89;31.83;100327.69;5039102;28;20030;-59
2022/08/08 05:53:55;;;;;;;3.47;2.92;;;;;;;33.40;30.95;100334.00;5039841;28;20104;-60
2022/08/08 05:56:22;;;;;;;4.63;3.70;;;;;;;33.82;29.86;100326.84;5039013;28;20473;-60
2022/08/08 05:58:59;;;;;;;3.67;3.15;;;;;;;34.02;30.05;100340.06;5041488;28;20061;-59
2022/08/08 06:01:29;;;;;;;4.25;3.50;;;;;;;34.63;28.03;100336.75;5042340;28;20040;-59
2022/08/08 06:04:01;;;;;;;5.93;3.13;;;;;;;34.56;28.91;100349.25;5047251;28;20056;-59
2022/08/08 06:06:30;;;;;;;4.40;3.47;;;;;;;33.45;30.15;100339.63;5053433;28;20041;-61
2022/08/08 06:09:01;;;;;;;6.07;3.67;;;;;;;32.45;31.83;100356.28;5051577;28;20492;-60
2022/08/08 06:11:31;;;;;;;5.18;3.60;;;;;;;31.40;33.76;100352.16;5054030;28;20087;-60
2022/08/08 06:13:58;;;;;;;4.05;3.50;;;;;;;30.00;36.28;100352.03;5042753;28;20040;-59
2022/08/08 06:16:23;;;;;;;4.05;3.58;;;;;;;28.73;38.54;100344.66;5034685;28;20045;-52
2022/08/08 06:18:49;;;;;;;4.35;3.80;;;;;;;27.83;40.43;100360.63;5051150;28;20108;-57
2022/08/08 06:21:15;;;;;;;6.30;3.60;;;;;;;27.03;42.29;100364.78;5044046;28;20057;-58
2022/08/08 06:23:41;;;;;;;5.35;4.40;;;;;;;26.18;43.89;100364.63;5033332;28;20140;-59
2022/08/08 06:26:09;;;;;;;4.97;4.43;;;;;;;25.76;45.65;100374.97;5033287;28;20033;-60
2022/08/08 06:29:18;;;;;;;5.97;4.00;;;;;;;25.66;45.92;100380.88;5045260;28;20029;-60
2022/08/08 06:31:44;;;;;;;5.60;4.50;;;;;;;25.10;47.11;100382.06;5051172;28;20532;-61
2022/08/08 06:34:17;;;;;;;7.68;4.75;;;;;;;24.90;47.63;100383.66;5050850;28;20073;-62
2022/08/08 06:36:49;;;;;;;5.80;4.93;;;;;;;24.66;48.77;100385.00;5041273;28;20045;-57
2022/08/08 06:39:19;;;;;;;8.10;5.18;;;;;;;24.30;49.17;100381.47;5032512;28;20079;-65
2022/08/08 06:41:50;;;;;;;6.80;5.15;;;;;;;24.08;50.26;100386.13;5032678;28;20049;-63
2022/08/08 06:44:17;;;;;;;7.18;5.85;;;;;;;23.73;51.18;100394.25;5030805;28;20029;-62
2022/08/08 06:46:43;;;;;;;6.75;6.00;;;;;;;23.49;51.79;100396.34;5036338;28;20508;-63
2022/08/08 06:49:10;;;;;;;7.93;7.13;;;;;;;23.26;52.16;100391.91;5030988;28;20044;-63
2022/08/08 06:51:36;;;;;;;10.05;7.80;;;;;;;23.21;52.54;100387.00;5030361;28;20181;-64
2022/08/08 06:54:02;;;;;;;9.02;7.40;;;;;;;23.27;52.54;100399.06;5037324;28;20032;-62
2022/08/08 06:56:29;;;;;;;11.43;7.60;;;;;;;23.37;52.62;100407.78;5032311;28;20410;-61
2022/08/08 06:58:55;;;;;;;10.02;7.05;;;;;;;23.38;52.16;100392.25;5030613;28;20377;-61
2022/08/08 07:01:24;;;;;;;11.40;7.05;;;;;;;23.46;52.40;100413.97;5046685;28;20033;-62
2022/08/08 07:03:55;;;;;;;7.70;6.93;;;;;;;23.48;52.23;100405.59;5032948;28;20037;-62
2022/08/08 07:06:26;;;;;;;9.45;6.85;;;;;;;23.45;52.58;100405.97;5032595;28;20440;-61
2022/08/08 07:08:57;;;;;;;11.10;7.43;;;;;;;23.38;52.66;100394.97;5051356;28;20040;-62
2022/08/08 07:11:29;;;;;;;8.80;7.05;;;;;;;23.43;52.58;100402.59;5052586;28;20508;-61
2022/08/08 07:14:00;;;;;;;11.98;7.15;;;;;;;23.58;52.59;100406.09;5033651;28;20083;-60
2022/08/08 07:16:57;;;;;;;10.18;7.72;;;;;;;23.81;51.76;100396.84;5032306;28;20033;-60
2022/08/08 07:19:29;;;;;;;7.57;6.75;;;;;;;23.94;50.65;100407.91;5032891;28;20043;-61
2022/08/08 07:22:06;;;;;;;9.82;7.68;;;;;;;24.12;51.32;100411.22;5036214;28;20569;-61
2022/08/08 07:24:31;;;;;;;11.05;8.15;;;;;;;23.85;51.31;100406.34;5050573;28;20041;-61
2022/08/08 07:26:59;;;;;;;11.65;9.10;;;;;;;23.67;51.59;100415.00;5040950;28;20239;-58
2022/08/08 07:29:24;;;;;;;10.40;8.93;;;;;;;23.46;52.57;100407.66;5040716;28;20110;-58
2022/08/08 07:31:50;;;;;;;10.98;9.73;;;;;;;23.33;52.55;100402.91;5048560;28;20500;-59
2022/08/08 07:34:17;;;;;;;12.23;10.73;;;;;;;23.34;52.96;100416.38;5042372;28;20051;-60
2022/08/08 07:36:43;;;;;;;11.63;10.43;;;;;;;23.42;52.70;100412.66;5030836;28;20033;-59
2022/08/08 07:39:09;;;;;;;13.40;10.25;;;;;;;23.67;51.88;100416.91;5033180;28;20488;-59
2022/08/08 07:41:41;;;;;;;11.65;10.32;;;;;;;24.09;51.08;100409.72;5032224;28;20026;-62
2022/08/08 07:44:08;;;;;;;11.95;10.32;;;;;;;24.34;50.16;100414.72;5032341;28;20116;-61
2022/08/08 07:46:34;;;;;;;11.63;10.07;;;;;;;24.52;49.81;100406.84;5046432;28;20033;-63
2022/08/08 07:48:59;;;;;;;13.15;10.27;;;;;;;24.72;49.17;100414.31;5051102;28;20033;-62
2022/08/08 07:51:25;;;;;;;12.02;10.07;;;;;;;24.72;49.11;100422.53;5041515;28;20366;-58
2022/08/08 07:54:24;;;;;;;12.52;11.18;;;;;;;24.74;49.77;100428.63;5041634;28;20112;-56
2022/08/08 07:57:02;;;;;;;11.02;9.75;;;;;;;24.47;49.26;100425.75;5049761;28;20443;-60
2022/08/08 07:59:34;;;;;;;13.43;11.88;;;;;;;24.51;49.91;100427.03;5049632;28;20049;-59
2022/08/08 08:02:05;;;;;;;11.05;10.10;;;;;;;24.78;49.42;100419.00;5031176;28;20033;-60
2022/08/08 08:04:42;;;;;;;11.93;10.57;;;;;;;25.23;47.85;100423.19;5031471;28;20033;-56
2022/08/08 08:07:09;;;;;;;11.63;9.82;;;;;;;25.41;47.09;100419.00;5036229;28;20029;-58
2022/08/08 08:09:38;;;;;;;13.07;9.57;;;;;;;25.49;47.17;100427.91;5051522;28;20032;-61
2022/08/08 08:12:04;;;;;;;11.60;9.38;;;;;;;25.43;47.29;100390.31;5050964;28;20040;-59
2022/08/08 08:14:52;;;;;;;11.65;9.98;;;;;;;25.99;46.64;100421.19;5033843;28;20025;-61
2022/08/08 08:17:19;;;;;;;11.63;9.93;;;;;;;25.94;46.28;100415.50;5045945;28;20112;-61
2022/08/08 08:19:48;;;;;;;11.82;10.60;;;;;;;26.05;45.67;100416.78;5044003;28;20086;-56
2022/08/08 08:22:15;;;;;;;11.35;10.20;;;;;;;26.10;45.85;100408.75;5046673;28;20102;-57
2022/08/08 08:24:43;;;;;;;12.10;10.20;;;;;;;26.29;45.48;100411.72;5050910;28;20439;-61
2022/08/08 08:27:09;;;;;;;11.55;10.38;;;;;;;26.42;44.91;100406.19;5049581;28;20075;-74
2022/08/08 08:29:34;;;;;;;13.30;10.07;;;;;;;26.72;44.52;100408.41;5051023;28;20037;-54
2022/08/08 08:32:00;;;;;;;14.35;11.27;;;;;;;27.19;43.01;100407.38;5044550;28;20029;-58
2022/08/08 08:34:25;;;;;;;11.93;10.68;;;;;;;28.01;41.29;100408.53;5031525;28;20030;-59
2022/08/08 08:36:51;;;;;;;10.68;9.32;;;;;;;28.84;39.52;100372.50;5030310;28;20030;-60
2022/08/08 08:39:16;;;;;;;10.90;9.80;;;;;;;29.28;38.46;100375.91;5042932;28;20041;-54
2022/08/08 08:41:42;;;;;;;10.18;8.90;;;;;;;29.37;37.88;100407.59;5050612;28;20043;-56
2022/08/08 08:44:09;;;;;;;16.90;8.75;;;;;;;28.91;39.01;100411.84;5050227;28;20079;-56
2022/08/08 08:46:36;;;;;;;11.27;9.80;;;;;;;28.49;39.90;100421.63;5046171;28;20036;-59
2022/08/08 08:49:02;;;;;;;10.70;9.00;;;;;;;28.13;40.27;100423.22;5046064;28;20040;-59
2022/08/08 08:51:29;;;;;;;11.38;8.95;;;;;;;27.99;40.68;100418.94;5039239;28;20033;-53
2022/08/08 08:53:55;;;;;;;10.52;9.45;;;;;;;27.90;41.17;100412.84;5030534;28;20037;-56
2022/08/08 08:56:24;;;;;;;13.18;10.50;;;;;;;27.80;40.69;100400.44;5030452;28;20469;-56
2022/08/08 08:58:51;;;;;;;11.52;9.05;;;;;;;27.96;40.69;100400.09;5040925;28;20025;-60
2022/08/08 09:01:19;;;;;;;10.25;9.10;;;;;;;28.32;40.12;100426.03;5040541;28;20637;-60
2022/08/08 09:03:49;;;;;;;20.50;9.60;;;;;;;28.51;39.86;100426.91;5031209;28;20022;-57
2022/08/08 09:06:25;;;;;;;12.30;8.98;;;;;;;28.76;39.88;100421.31;5035793;28;20454;-60
2022/08/08 09:08:57;;;;;;;10.48;9.23;;;;;;;28.65;39.06;100427.59;5030215;28;20083;-59
2022/08/08 09:11:23;;;;;;;11.63;9.48;;;;;;;28.25;40.44;100428.03;5031052;28;20128;-59
2022/08/08 09:13:50;;;;;;;11.63;9.20;;;;;;;28.29;40.03;100421.00;5030271;28;20132;-58
2022/08/08 09:16:16;;;;;;;9.93;8.13;;;;;;;28.16;40.13;100409.03;5034429;28;20044;-58
2022/08/08 09:18:43;;;;;;;9.93;7.30;;;;;;;27.99;40.40;100406.00;5048434;28;20167;-57
2022/08/08 09:21:09;;;;;;;7.72;6.85;;;;;;;27.79;40.97;100411.69;5049307;28;20028;-63
2022/08/08 09:23:35;;;;;;;9.02;6.93;;;;;;;27.56;41.71;100410.38;5044481;28;20439;-56
2022/08/08 09:26:18;;;;;;;8.98;6.55;;;;;;;27.63;41.95;100418.56;5045299;28;20033;-57
2022/08/08 09:28:43;;;;;;;7.90;7.10;;;;;;;27.40;42.03;100408.97;5035085;28;20029;-59
2022/08/08 09:31:24;;;;;;;8.30;7.53;;;;;;;27.23;42.55;100425.13;5029874;28;20052;-62
2022/08/08 09:33:51;;;;;;;10.50;7.05;;;;;;;26.80;43.63;100429.28;5034356;28;20037;-53
2022/08/08 09:36:21;;;;;;;7.95;6.22;;;;;;;26.70;43.81;100426.19;5034035;28;20037;-56
2022/08/08 09:38:58;;;;;;;9.13;6.22;;;;;;;26.47;44.71;100430.25;5033165;28;20030;-58
2022/08/08 09:41:35;;;;;;;8.90;5.93;;;;;;;26.26;45.27;100436.81;5034207;28;20108;-55
2022/08/08 09:44:22;;;;;;;7.28;6.63;;;;;;;26.11;45.38;100415.91;5033690;28;20109;-56
2022/08/08 09:46:50;;;;;;;8.05;6.47;;;;;;;26.30;44.55;100438.09;5048825;28;20040;-60
2022/08/08 09:49:17;;;;;;;9.63;6.25;;;;;;;26.35;44.55;100441.03;5051928;28;20036;-55
2022/08/08 09:51:47;;;;;;;8.00;7.18;;;;;;;26.44;44.15;100428.75;5053087;28;20036;-56
2022/08/08 09:54:17;;;;;;;8.13;7.32;;;;;;;26.48;44.53;100435.50;5048678;28;20052;-58
2022/08/08 09:56:46;;;;;;;8.18;7.10;;;;;;;26.42;44.69;100439.13;5041367;28;20029;-55
2022/08/08 09:59:22;;;;;;;8.45;7.50;;;;;;;26.64;44.38;100433.38;5041523;28;20362;-58
2022/08/08 10:01:51;;;;;;;8.45;7.22;;;;;;;27.08;43.52;100429.00;5043370;28;20034;-58
2022/08/08 10:04:21;;;;;;;8.20;7.03;;;;;;;27.29;42.98;100421.50;5038392;28;20063;-56
2022/08/08 10:06:47;;;;;;;7.28;6.22;;;;;;;27.15;43.19;100422.63;5046389;28;20033;-65
2022/08/08 10:09:13;;;;;;;7.63;6.13;;;;;;;27.12;43.42;100425.81;5054343;28;20033;-59
2022/08/08 10:11:46;;;;;;;8.15;6.57;;;;;;;27.07;43.54;100427.31;5034359;28;20496;-57
2022/08/08 10:14:12;;;;;;;7.20;6.53;;;;;;;27.24;43.16;100432.28;5048664;28;20090;-64
2022/08/08 10:16:40;;;;;;;10.10;5.82;;;;;;;27.50;42.53;100428.56;5053481;28;20041;-58
2022/08/08 10:19:08;;;;;;;8.05;6.32;;;;;;;27.55;42.25;100432.56;5046757;28;20033;-54
2022/08/08 10:21:35;;;;;;;8.02;5.30;;;;;;;27.50;42.32;100430.47;5033269;28;20037;-55
2022/08/08 10:24:09;;;;;;;6.90;5.93;;;;;;;27.45;42.42;100438.53;5049364;28;20083;-53
2022/08/08 10:26:43;;;;;;;7.88;6.15;;;;;;;27.25;43.24;100438.66;5051959;28;20048;-55
2022/08/08 10:29:10;;;;;;;6.18;5.57;;;;;;;26.98;43.47;100450.59;5053519;28;20036;-53
2022/08/08 10:34:23;;;;;;;7.07;5.95;;;;;;;26.65;43.41;100449.66;5050747;28;20116;-54
2022/08/08 10:36:50;;;;;;;6.22;5.63;;;;;;;26.21;44.59;100449.28;5049018;28;20033;-56
2022/08/08 10:39:24;;;;;;;8.25;5.88;;;;;;;25.75;45.80;100461.06;5032852;28;20033;-57
2022/08/08 10:42:03;;;;;;;7.10;6.40;;;;;;;25.31;47.18;100455.84;5032874;28;20077;-54
2022/08/08 10:44:37;;;;;;;6.95;6.32;;;;;;;25.21;47.39;100459.03;5032023;28;20345;-56
2022/08/08 10:47:16;;;;;;;6.93;6.22;;;;;;;25.30;47.43;100456.09;5047428;28;20785;-63
2022/08/08 10:49:49;;;;;;;7.60;6.28;;;;;;;25.37;47.24;100463.28;5052747;28;20469;-55
2022/08/08 10:52:31;;;;;;;8.85;7.40;;;;;;;25.32;47.44;100456.72;5044984;28;20461;-57
2022/08/08 10:55:03;;;;;;;7.25;6.55;;;;;;;25.30;47.18;100453.34;5050089;28;20068;-58
2022/08/08 10:57:30;;;;;;;6.93;6.20;;;;;;;25.34;46.78;100435.44;5051769;28;20032;-59
2022/08/08 10:59:59;;;;;;;7.57;6.53;;;;;;;25.64;46.33;100443.31;5046561;28;20040;-53
2022/08/08 11:02:31;;;;;;;6.70;6.10;;;;;;;25.95;45.82;100441.88;5051667;28;20610;-52
2022/08/08 11:04:59;;;;;;;7.00;5.60;;;;;;;26.08;45.09;100439.13;5051334;28;20032;-55
2022/08/08 11:07:36;;;;;;;5.47;4.97;;;;;;;26.15;44.95;100430.91;5051880;28;20052;-55
2022/08/08 11:10:12;;;;;;;8.27;6.05;;;;;;;25.70;46.25;100412.34;5052180;28;20393;-55
2022/08/08 11:13:04;;;;;;;5.22;4.72;;;;;;;25.41;46.62;100413.53;5052615;28;20119;-57
2022/08/08 11:15:30;;;;;;;5.80;5.25;;;;;;;25.06;47.64;100415.31;5052065;28;20045;-56
2022/08/08 11:17:56;;;;;;;6.28;5.68;;;;;;;24.85;48.03;100415.47;5052421;28;20150;-57
2022/08/08 11:20:28;;;;;;;6.15;5.30;;;;;;;24.85;48.10;100431.91;5052202;28;20495;-57
2022/08/08 11:22:59;;;;;;;5.93;5.10;;;;;;;24.79;48.27;100433.56;5039519;28;20109;-53
2022/08/08 11:25:25;;;;;;;5.30;4.80;;;;;;;24.97;47.58;100424.78;5032141;28;20484;-57
2022/08/08 11:27:54;;;;;;;4.60;4.20;;;;;;;25.17;47.04;100424.00;5032001;28;20068;-56
2022/08/08 11:30:22;;;;;;;6.45;4.00;;;;;;;25.39;46.93;100426.59;5032424;28;20038;-55
2022/08/08 11:32:52;;;;;;;5.00;3.90;;;;;;;25.42;46.55;100434.41;5031866;28;20120;-55
2022/08/08 11:35:18;;;;;;;4.78;3.60;;;;;;;25.34;46.50;100429.94;5032143;28;20095;-55
2022/08/08 11:37:44;;;;;;;3.70;3.38;;;;;;;25.28;46.56;100425.31;5030495;28;20033;-53
2022/08/08 11:40:12;;;;;;;6.38;3.75;;;;;;;25.13;46.77;100423.56;5032170;28;20032;-56
2022/08/08 11:42:38;;;;;;;6.47;3.90;;;;;;;25.02;46.90;100438.69;5032370;28;20036;-56
2022/08/08 11:45:05;;;;;;;3.72;3.40;;;;;;;25.02;47.46;100441.44;5032384;28;20045;-56
2022/08/08 11:47:32;;;;;;;3.90;3.45;;;;;;;25.11;46.60;100444.00;5032110;28;20063;-53
2022/08/08 11:50:04;;;;;;;3.90;3.50;;;;;;;25.10;46.67;100439.59;5031531;28;20069;-54
2022/08/08 11:52:30;;;;;;;3.70;3.28;;;;;;;25.16;46.82;100438.75;5031955;28;20119;-55
2022/08/08 11:54:56;;;;;;;3.92;2.97;;;;;;;25.09;46.86;100411.34;5035105;28;20026;-52
2022/08/08 11:57:25;;;;;;;7.43;2.50;;;;;;;25.33;46.52;100444.72;5047532;28;20048;-54